Terminal Aerodrome Forecast
Issued by NWS

Home | Current Version | Previous Version | Text Only | Print | Product List | Glossary On
Versions: 1 2 3 4 5 6 7 8 9 10 11 12 13 14 15 16 17 18 19 20 21 22 23 24 25 26 27 28 29 30 31 32 33 34 35 36 37 38 39 40 41 42 43 44 45
000
FTUS43 KDTX 220500
TAFPTK
TAF
KPTK 220528Z 2206/2306 05005KT P6SM SCT035 BKN070
     FM221000 VRB03KT 4SM -SHRA BR OVC025
     FM221400 09005KT 6SM BR BKN035
     FM221900 14005KT P6SM BKN050
     FM230100 09005KT P6SM SCT050 BKN120 OVC250=

USA.gov is the U.S. government's official web portal to all federal, state and local government web resources and services.